sensor_id;sensor_type;location;lat;lon;timestamp;pressure;altitude;pressure_sealevel;temperature;humidity
74327;BME280;62745;51.060;13.786;2023-03-02T00:00:23;101163.97;;;-1.84;82.93
74327;BME280;62745;51.060;13.786;2023-03-02T00:02:50;101161.06;;;-1.79;84.16
74327;BME280;62745;51.060;13.786;2023-03-02T00:05:15;101184.09;;;-1.70;84.29
74327;BME280;62745;51.060;13.786;2023-03-02T00:07:40;101193.03;;;-1.89;84.96
74327;BME280;62745;51.060;13.786;2023-03-02T00:10:06;101149.47;;;-2.35;86.72
74327;BME280;62745;51.060;13.786;2023-03-02T00:12:32;101155.91;;;-1.95;86.06
74327;BME280;62745;51.060;13.786;2023-03-02T00:14:58;101197.06;;;-2.13;86.43
74327;BME280;62745;51.060;13.786;2023-03-02T00:17:23;101140.28;;;-1.97;85.61
74327;BME280;62745;51.060;13.786;2023-03-02T00:19:53;101170.91;;;-1.83;83.93
74327;BME280;62745;51.060;13.786;2023-03-02T00:22:18;101190.22;;;-1.86;83.94
74327;BME280;62745;51.060;13.786;2023-03-02T00:24:44;101154.66;;;-1.45;80.85
74327;BME280;62745;51.060;13.786;2023-03-02T00:27:09;101165.50;;;-1.66;81.20
74327;BME280;62745;51.060;13.786;2023-03-02T00:29:34;101145.09;;;-1.61;81.85
74327;BME280;62745;51.060;13.786;2023-03-02T00:32:00;101130.41;;;-1.63;81.88
74327;BME280;62745;51.060;13.786;2023-03-02T00:34:26;101122.53;;;-2.22;83.05
74327;BME280;62745;51.060;13.786;2023-03-02T00:36:51;101155.41;;;-2.32;84.38
74327;BME280;62745;51.060;13.786;2023-03-02T00:39:16;101144.44;;;-2.54;85.68
74327;BME280;62745;51.060;13.786;2023-03-02T00:41:44;101158.22;;;-2.51;86.02
74327;BME280;62745;51.060;13.786;2023-03-02T00:44:09;101151.31;;;-2.67;86.51
74327;BME280;62745;51.060;13.786;2023-03-02T00:46:41;101125.63;;;-2.45;85.80
74327;BME280;62745;51.060;13.786;2023-03-02T00:49:06;101126.81;;;-2.35;84.60
74327;BME280;62745;51.060;13.786;2023-03-02T00:51:31;101125.00;;;-2.64;85.33
74327;BME280;62745;51.060;13.786;2023-03-02T00:53:57;101139.50;;;-2.75;86.09
74327;BME280;62745;51.060;13.786;2023-03-02T00:56:26;101141.63;;;-2.65;86.93
74327;BME280;62745;51.060;13.786;2023-03-02T00:58:52;101160.59;;;-2.16;85.55
74327;BME280;62745;51.060;13.786;2023-03-02T01:01:17;101117.34;;;-2.07;84.40
74327;BME280;62745;51.060;13.786;2023-03-02T01:03:42;101099.94;;;-2.38;84.16
74327;BME280;62745;51.060;13.786;2023-03-02T01:06:14;101143.38;;;-1.90;83.86
74327;BME280;62745;51.060;13.786;2023-03-02T01:08:40;101137.56;;;-2.25;83.67
74327;BME280;62745;51.060;13.786;2023-03-02T01:11:14;101119.31;;;-2.57;85.42
74327;BME280;62745;51.060;13.786;2023-03-02T01:13:40;101090.03;;;-2.48;84.61
74327;BME280;62745;51.060;13.786;2023-03-02T01:16:08;101114.81;;;-2.09;84.18
74327;BME280;62745;51.060;13.786;2023-03-02T01:18:34;101131.63;;;-2.13;84.12
74327;BME280;62745;51.060;13.786;2023-03-02T01:21:05;101134.91;;;-1.65;82.15
74327;BME280;62745;51.060;13.786;2023-03-02T01:23:31;101109.66;;;-2.10;84.04
74327;BME280;62745;51.060;13.786;2023-03-02T01:25:56;101082.84;;;-2.14;83.25
74327;BME280;62745;51.060;13.786;2023-03-02T01:28:21;101091.09;;;-1.77;81.85
74327;BME280;62745;51.060;13.786;2023-03-02T01:30:47;101096.44;;;-1.79;81.04
74327;BME280;62745;51.060;13.786;2023-03-02T01:33:13;101107.31;;;-2.15;83.41
74327;BME280;62745;51.060;13.786;2023-03-02T01:35:38;101119.84;;;-2.36;83.93
74327;BME280;62745;51.060;13.786;2023-03-02T01:38:03;101090.41;;;-2.69;85.01
74327;BME280;62745;51.060;13.786;2023-03-02T01:40:29;101093.69;;;-2.66;85.99
74327;BME280;62745;51.060;13.786;2023-03-02T01:42:57;101113.06;;;-2.54;85.91
74327;BME280;62745;51.060;13.786;2023-03-02T01:48:13;101093.06;;;-2.85;86.91
74327;BME280;62745;51.060;13.786;2023-03-02T01:50:39;101103.56;;;-2.71;87.15
74327;BME280;62745;51.060;13.786;2023-03-02T01:53:05;101100.63;;;-2.81;87.65
74327;BME280;62745;51.060;13.786;2023-03-02T01:55:32;101109.88;;;-2.59;87.55
74327;BME280;62745;51.060;13.786;2023-03-02T01:57:59;101095.38;;;-2.65;86.45
74327;BME280;62745;51.060;13.786;2023-03-02T02:00:30;101126.44;;;-2.29;86.42
74327;BME280;62745;51.060;13.786;2023-03-02T02:03:00;101108.47;;;-2.81;86.97
74327;BME280;62745;51.060;13.786;2023-03-02T02:05:35;101119.84;;;-2.66;87.86
74327;BME280;62745;51.060;13.786;2023-03-02T02:08:01;101118.97;;;-2.35;86.50
74327;BME280;62745;51.060;13.786;2023-03-02T02:10:27;101083.22;;;-2.50;86.41
74327;BME280;62745;51.060;13.786;2023-03-02T02:12:53;101066.19;;;-2.73;86.05
74327;BME280;62745;51.060;13.786;2023-03-02T02:15:18;101101.91;;;-2.42;86.29
74327;BME280;62745;51.060;13.786;2023-03-02T02:17:43;101094.78;;;-2.70;86.76
74327;BME280;62745;51.060;13.786;2023-03-02T02:31:01;101115.56;;;-2.37;85.53
74327;BME280;62745;51.060;13.786;2023-03-02T02:33:27;101112.19;;;-2.09;84.05
74327;BME280;62745;51.060;13.786;2023-03-02T02:35:58;101086.25;;;-1.84;82.88
74327;BME280;62745;51.060;13.786;2023-03-02T02:38:26;101102.31;;;-1.90;83.35
74327;BME280;62745;51.060;13.786;2023-03-02T02:40:54;101084.06;;;-1.91;81.83
74327;BME280;62745;51.060;13.786;2023-03-02T02:43:21;101080.13;;;-2.13;82.66
74327;BME280;62745;51.060;13.786;2023-03-02T02:45:48;101078.94;;;-1.93;82.70
74327;BME280;62745;51.060;13.786;2023-03-02T02:48:18;101078.81;;;-2.05;82.92
74327;BME280;62745;51.060;13.786;2023-03-02T02:50:45;101063.66;;;-2.29;82.77
74327;BME280;62745;51.060;13.786;2023-03-02T02:53:26;101083.13;;;-2.04;82.88
74327;BME280;62745;51.060;13.786;2023-03-02T02:55:54;101091.94;;;-1.91;82.11
74327;BME280;62745;51.060;13.786;2023-03-02T02:58:27;101087.13;;;-2.13;81.98
74327;BME280;62745;51.060;13.786;2023-03-02T03:00:55;101087.50;;;-2.49;83.08
74327;BME280;62745;51.060;13.786;2023-03-02T03:03:25;101091.03;;;-2.20;83.40
74327;BME280;62745;51.060;13.786;2023-03-02T03:06:00;101089.72;;;-2.27;83.52
74327;BME280;62745;51.060;13.786;2023-03-02T03:11:11;101054.91;;;-2.74;84.18
74327;BME280;62745;51.060;13.786;2023-03-02T03:13:38;101046.88;;;-2.70;84.23
74327;BME280;62745;51.060;13.786;2023-03-02T03:16:05;101072.19;;;-2.87;85.12
74327;BME280;62745;51.060;13.786;2023-03-02T03:18:32;101067.34;;;-3.24;86.66
74327;BME280;62745;51.060;13.786;2023-03-02T03:20:57;101048.72;;;-3.50;87.34
74327;BME280;62745;51.060;13.786;2023-03-02T03:23:22;101050.28;;;-3.63;88.08
74327;BME280;62745;51.060;13.786;2023-03-02T03:25:47;101049.50;;;-3.81;89.30
74327;BME280;62745;51.060;13.786;2023-03-02T03:28:13;101043.44;;;-3.81;89.14
74327;BME280;62745;51.060;13.786;2023-03-02T03:30:38;101056.59;;;-3.67;89.44
74327;BME280;62745;51.060;13.786;2023-03-02T03:33:03;101070.59;;;-3.37;88.43
74327;BME280;62745;51.060;13.786;2023-03-02T03:35:29;101051.75;;;-3.26;87.68
74327;BME280;62745;51.060;13.786;2023-03-02T03:37:54;101055.13;;;-3.08;86.60
74327;BME280;62745;51.060;13.786;2023-03-02T03:40:19;101053.59;;;-3.28;87.31
74327;BME280;62745;51.060;13.786;2023-03-02T03:42:45;101057.81;;;-3.41;88.05
74327;BME280;62745;51.060;13.786;2023-03-02T03:45:10;101059.31;;;-3.37;88.63
74327;BME280;62745;51.060;13.786;2023-03-02T03:47:36;101070.97;;;-3.11;86.68
74327;BME280;62745;51.060;13.786;2023-03-02T03:50:01;101068.00;;;-3.37;87.71
74327;BME280;62745;51.060;13.786;2023-03-02T03:52:27;101080.66;;;-3.29;87.58
74327;BME280;62745;51.060;13.786;2023-03-02T03:54:59;101052.00;;;-3.46;87.45
74327;BME280;62745;51.060;13.786;2023-03-02T03:57:26;101064.91;;;-3.27;88.14
74327;BME280;62745;51.060;13.786;2023-03-02T03:59:51;101058.47;;;-3.38;86.47
74327;BME280;62745;51.060;13.786;2023-03-02T04:02:16;101056.69;;;-3.53;88.41
74327;BME280;62745;51.060;13.786;2023-03-02T04:04:42;101075.84;;;-3.21;88.81
74327;BME280;62745;51.060;13.786;2023-03-02T04:07:07;101055.75;;;-3.68;88.80
74327;BME280;62745;51.060;13.786;2023-03-02T04:09:33;101070.59;;;-3.68;90.28
74327;BME280;62745;51.060;13.786;2023-03-02T04:12:02;101064.78;;;-3.90;90.14
74327;BME280;62745;51.060;13.786;2023-03-02T04:14:28;101075.28;;;-3.75;91.22
74327;BME280;62745;51.060;13.786;2023-03-02T04:16:54;101053.56;;;-2.81;86.63
74327;BME280;62745;51.060;13.786;2023-03-02T04:19:22;101087.13;;;-3.05;86.20
74327;BME280;62745;51.060;13.786;2023-03-02T04:21:50;101081.59;;;-3.14;88.11
74327;BME280;62745;51.060;13.786;2023-03-02T04:24:17;101050.94;;;-3.75;88.46
74327;BME280;62745;51.060;13.786;2023-03-02T04:26:43;101061.53;;;-3.78;89.56
74327;BME280;62745;51.060;13.786;2023-03-02T04:29:10;101055.81;;;-3.85;89.57
74327;BME280;62745;51.060;13.786;2023-03-02T04:31:36;101047.53;;;-3.93;90.24
74327;BME280;62745;51.060;13.786;2023-03-02T04:34:02;101039.25;;;-3.21;88.58
74327;BME280;62745;51.060;13.786;2023-03-02T04:36:31;101067.97;;;-2.74;86.81
74327;BME280;62745;51.060;13.786;2023-03-02T04:38:57;101054.31;;;-2.79;85.18
74327;BME280;62745;51.060;13.786;2023-03-02T04:41:22;101075.41;;;-2.66;84.80
74327;BME280;62745;51.060;13.786;2023-03-02T04:43:48;101080.38;;;-2.77;85.47
74327;BME280;62745;51.060;13.786;2023-03-02T04:46:17;101037.34;;;-3.01;85.19
74327;BME280;62745;51.060;13.786;2023-03-02T04:48:43;101064.91;;;-3.12;86.12
74327;BME280;62745;51.060;13.786;2023-03-02T04:51:17;101051.34;;;-3.18;85.76
74327;BME280;62745;51.060;13.786;2023-03-02T04:53:48;101075.06;;;-2.76;84.92
74327;BME280;62745;51.060;13.786;2023-03-02T04:56:13;101083.00;;;-3.09;86.16
74327;BME280;62745;51.060;13.786;2023-03-02T04:58:38;101077.03;;;-2.49;85.27
74327;BME280;62745;51.060;13.786;2023-03-02T05:01:04;101069.41;;;-2.68;84.98
74327;BME280;62745;51.060;13.786;2023-03-02T05:03:29;101068.91;;;-2.90;85.09
74327;BME280;62745;51.060;13.786;2023-03-02T05:05:54;101085.69;;;-2.79;85.23
74327;BME280;62745;51.060;13.786;2023-03-02T05:08:21;101061.31;;;-2.79;85.30
74327;BME280;62745;51.060;13.786;2023-03-02T05:10:46;101057.63;;;-3.38;85.91
74327;BME280;62745;51.060;13.786;2023-03-02T05:13:11;101071.81;;;-3.11;85.12
74327;BME280;62745;51.060;13.786;2023-03-02T05:15:38;101053.03;;;-3.17;85.10
74327;BME280;62745;51.060;13.786;2023-03-02T05:18:06;101076.00;;;-2.77;84.40
74327;BME280;62745;51.060;13.786;2023-03-02T05:20:32;101077.97;;;-2.96;84.27
74327;BME280;62745;51.060;13.786;2023-03-02T05:23:04;101037.78;;;-3.74;86.56
74327;BME280;62745;51.060;13.786;2023-03-02T05:25:33;101075.53;;;-3.30;86.91
74327;BME280;62745;51.060;13.786;2023-03-02T05:27:59;101072.06;;;-3.15;85.75
74327;BME280;62745;51.060;13.786;2023-03-02T05:30:25;101051.25;;;-3.01;84.88
74327;BME280;62745;51.060;13.786;2023-03-02T05:32:52;101070.78;;;-3.24;85.75
74327;BME280;62745;51.060;13.786;2023-03-02T05:35:19;101058.59;;;-3.72;86.58
74327;BME280;62745;51.060;13.786;2023-03-02T05:37:46;101059.97;;;-3.65;88.40
74327;BME280;62745;51.060;13.786;2023-03-02T05:40:14;101061.28;;;-3.25;86.88
74327;BME280;62745;51.060;13.786;2023-03-02T05:42:42;101061.06;;;-3.53;87.77
74327;BME280;62745;51.060;13.786;2023-03-02T05:45:11;101060.56;;;-3.93;88.30
74327;BME280;62745;51.060;13.786;2023-03-02T05:47:37;101061.38;;;-4.08;89.33
74327;BME280;62745;51.060;13.786;2023-03-02T05:50:03;101060.09;;;-3.51;89.69
74327;BME280;62745;51.060;13.786;2023-03-02T05:52:28;101064.22;;;-3.15;87.15
74327;BME280;62745;51.060;13.786;2023-03-02T05:54:53;101066.00;;;-3.16;88.38
74327;BME280;62745;51.060;13.786;2023-03-02T05:57:19;101055.66;;;-2.87;85.30
74327;BME280;62745;51.060;13.786;2023-03-02T05:59:44;101068.22;;;-2.32;84.53
74327;BME280;62745;51.060;13.786;2023-03-02T06:02:11;101074.06;;;-2.13;82.86
74327;BME280;62745;51.060;13.786;2023-03-02T06:04:36;101064.47;;;-2.28;81.67
74327;BME280;62745;51.060;13.786;2023-03-02T06:07:07;101071.44;;;-2.43;81.56
74327;BME280;62745;51.060;13.786;2023-03-02T06:09:33;101066.59;;;-2.49;82.37
74327;BME280;62745;51.060;13.786;2023-03-02T06:11:58;101071.94;;;-2.36;82.09
74327;BME280;62745;51.060;13.786;2023-03-02T06:14:23;101079.72;;;-2.35;82.42
74327;BME280;62745;51.060;13.786;2023-03-02T06:16:49;101063.22;;;-2.37;82.06
74327;BME280;62745;51.060;13.786;2023-03-02T06:19:14;101075.19;;;-2.17;82.55
74327;BME280;62745;51.060;13.786;2023-03-02T06:21:39;101073.03;;;-2.10;81.35
74327;BME280;62745;51.060;13.786;2023-03-02T06:24:05;101075.28;;;-1.90;81.46
74327;BME280;62745;51.060;13.786;2023-03-02T06:26:30;101076.53;;;-1.82;80.58
74327;BME280;62745;51.060;13.786;2023-03-02T06:28:55;101082.13;;;-1.45;79.91
74327;BME280;62745;51.060;13.786;2023-03-02T06:31:20;101090.09;;;-1.46;78.52
74327;BME280;62745;51.060;13.786;2023-03-02T06:33:46;101084.28;;;-1.80;80.29
74327;BME280;62745;51.060;13.786;2023-03-02T06:36:11;101090.19;;;-1.76;80.66
74327;BME280;62745;51.060;13.786;2023-03-02T06:38:36;101079.06;;;-1.80;80.99
74327;BME280;62745;51.060;13.786;2023-03-02T06:41:02;101086.25;;;-1.84;81.01
74327;BME280;62745;51.060;13.786;2023-03-02T06:43:27;101092.00;;;-2.07;81.83
74327;BME280;62745;51.060;13.786;2023-03-02T06:45:52;101072.09;;;-2.09;82.49
74327;BME280;62745;51.060;13.786;2023-03-02T06:48:17;101067.44;;;-1.90;81.96
74327;BME280;62745;51.060;13.786;2023-03-02T06:50:43;101087.09;;;-1.83;81.75
74327;BME280;62745;51.060;13.786;2023-03-02T06:53:08;101064.44;;;-1.70;82.10
74327;BME280;62745;51.060;13.786;2023-03-02T06:55:33;101063.16;;;-1.48;81.04
74327;BME280;62745;51.060;13.786;2023-03-02T06:57:58;101066.59;;;-1.34;80.61
74327;BME280;62745;51.060;13.786;2023-03-02T07:00:24;101069.44;;;-1.10;80.26
74327;BME280;62745;51.060;13.786;2023-03-02T07:02:52;101067.69;;;-0.70;79.41
74327;BME280;62745;51.060;13.786;2023-03-02T07:05:18;101066.44;;;-0.77;79.14
74327;BME280;62745;51.060;13.786;2023-03-02T07:07:44;101067.34;;;-0.51;78.40
74327;BME280;62745;51.060;13.786;2023-03-02T07:10:09;101061.03;;;0.04;75.85
74327;BME280;62745;51.060;13.786;2023-03-02T07:12:36;101071.81;;;-0.26;76.46
74327;BME280;62745;51.060;13.786;2023-03-02T07:15:01;101069.84;;;0.28;74.75
74327;BME280;62745;51.060;13.786;2023-03-02T07:17:28;101068.19;;;0.02;75.30
74327;BME280;62745;51.060;13.786;2023-03-02T07:19:53;101059.66;;;-0.14;76.63
74327;BME280;62745;51.060;13.786;2023-03-02T07:22:18;101053.25;;;0.15;75.94
74327;BME280;62745;51.060;13.786;2023-03-02T07:24:43;101057.66;;;0.15;75.80
74327;BME280;62745;51.060;13.786;2023-03-02T07:27:09;101063.22;;;0.10;76.64
74327;BME280;62745;51.060;13.786;2023-03-02T07:29:34;101063.97;;;0.38;75.26
74327;BME280;62745;51.060;13.786;2023-03-02T07:31:59;101054.41;;;0.24;75.48
74327;BME280;62745;51.060;13.786;2023-03-02T07:34:25;101059.44;;;0.14;76.27
74327;BME280;62745;51.060;13.786;2023-03-02T07:36:51;101075.41;;;0.11;76.29
74327;BME280;62745;51.060;13.786;2023-03-02T07:39:17;101065.84;;;0.10;77.54
74327;BME280;62745;51.060;13.786;2023-03-02T07:41:43;101046.66;;;0.72;75.37
74327;BME280;62745;51.060;13.786;2023-03-02T07:44:08;101067.56;;;1.10;74.33
74327;BME280;62745;51.060;13.786;2023-03-02T07:46:34;101067.78;;;1.07;75.05
74327;BME280;62745;51.060;13.786;2023-03-02T07:48:59;101059.41;;;1.02;74.21
74327;BME280;62745;51.060;13.786;2023-03-02T07:51:25;101063.41;;;0.95;74.68
74327;BME280;62745;51.060;13.786;2023-03-02T07:53:50;101049.72;;;1.26;73.11
74327;BME280;62745;51.060;13.786;2023-03-02T07:56:16;101061.63;;;0.95;73.96
74327;BME280;62745;51.060;13.786;2023-03-02T07:58:41;101049.13;;;1.34;73.11
74327;BME280;62745;51.060;13.786;2023-03-02T08:01:06;101052.06;;;1.18;73.66
74327;BME280;62745;51.060;13.786;2023-03-02T08:03:33;101076.28;;;1.58;72.73
74327;BME280;62745;51.060;13.786;2023-03-02T08:06:04;101064.25;;;1.78;71.67
74327;BME280;62745;51.060;13.786;2023-03-02T08:08:29;101065.41;;;2.09;72.24
74327;BME280;62745;51.060;13.786;2023-03-02T08:10:55;101049.94;;;1.93;70.30
74327;BME280;62745;51.060;13.786;2023-03-02T08:13:27;101051.88;;;2.25;69.82
74327;BME280;62745;51.060;13.786;2023-03-02T08:16:01;101069.50;;;2.47;68.90
74327;BME280;62745;51.060;13.786;2023-03-02T08:18:27;101068.31;;;2.28;69.56
74327;BME280;62745;51.060;13.786;2023-03-02T08:20:52;101058.72;;;2.61;69.90
74327;BME280;62745;51.060;13.786;2023-03-02T08:23:18;101071.91;;;2.61;69.11
74327;BME280;62745;51.060;13.786;2023-03-02T08:25:44;101073.56;;;2.51;70.14
74327;BME280;62745;51.060;13.786;2023-03-02T08:28:09;101073.22;;;2.66;70.70
74327;BME280;62745;51.060;13.786;2023-03-02T08:30:34;101072.94;;;2.92;68.77
74327;BME280;62745;51.060;13.786;2023-03-02T08:32:59;101070.06;;;3.06;68.87
74327;BME280;62745;51.060;13.786;2023-03-02T08:35:25;101068.84;;;3.10;67.97
74327;BME280;62745;51.060;13.786;2023-03-02T08:37:50;101062.78;;;2.87;69.14
74327;BME280;62745;51.060;13.786;2023-03-02T08:40:15;101067.03;;;2.99;69.00
74327;BME280;62745;51.060;13.786;2023-03-02T08:42:40;101057.31;;;3.11;69.21
74327;BME280;62745;51.060;13.786;2023-03-02T08:45:06;101063.63;;;2.88;69.76
74327;BME280;62745;51.060;13.786;2023-03-02T08:47:31;101054.69;;;3.00;69.76
74327;BME280;62745;51.060;13.786;2023-03-02T08:49:57;101058.56;;;3.60;66.53
74327;BME280;62745;51.060;13.786;2023-03-02T08:52:22;101045.88;;;3.96;64.99
74327;BME280;62745;51.060;13.786;2023-03-02T08:54:47;101043.53;;;4.53;64.25
74327;BME280;62745;51.060;13.786;2023-03-02T08:57:12;101049.69;;;5.42;62.02
74327;BME280;62745;51.060;13.786;2023-03-02T08:59:38;101046.75;;;4.67;63.04
74327;BME280;62745;51.060;13.786;2023-03-02T09:02:03;101039.38;;;4.61;63.91
74327;BME280;62745;51.060;13.786;2023-03-02T09:04:29;101015.28;;;4.03;66.31
74327;BME280;62745;51.060;13.786;2023-03-02T09:06:54;101027.91;;;4.50;65.20
74327;BME280;62745;51.060;13.786;2023-03-02T09:09:19;101026.00;;;5.22;62.80
74327;BME280;62745;51.060;13.786;2023-03-02T09:11:45;101029.13;;;4.87;61.87
74327;BME280;62745;51.060;13.786;2023-03-02T09:14:10;101019.13;;;4.40;61.97
74327;BME280;62745;51.060;13.786;2023-03-02T09:16:36;101041.59;;;3.42;64.63
74327;BME280;62745;51.060;13.786;2023-03-02T09:19:01;101021.28;;;4.26;64.08
74327;BME280;62745;51.060;13.786;2023-03-02T09:21:26;101014.34;;;4.84;63.42
74327;BME280;62745;51.060;13.786;2023-03-02T09:23:52;101019.16;;;5.29;60.14
74327;BME280;62745;51.060;13.786;2023-03-02T09:26:20;101013.28;;;5.44;58.19
74327;BME280;62745;51.060;13.786;2023-03-02T09:28:45;101022.91;;;5.36;57.45
74327;BME280;62745;51.060;13.786;2023-03-02T09:31:10;101021.53;;;5.41;57.29
74327;BME280;62745;51.060;13.786;2023-03-02T09:33:36;101025.84;;;5.62;57.77
74327;BME280;62745;51.060;13.786;2023-03-02T09:36:06;101027.31;;;6.03;58.41
74327;BME280;62745;51.060;13.786;2023-03-02T09:38:32;101017.53;;;6.13;57.99
74327;BME280;62745;51.060;13.786;2023-03-02T09:43:54;101010.25;;;6.52;56.99
74327;BME280;62745;51.060;13.786;2023-03-02T09:51:59;101017.63;;;7.04;55.21
74327;BME280;62745;51.060;13.786;2023-03-02T09:54:27;101013.56;;;7.27;55.93
74327;BME280;62745;51.060;13.786;2023-03-02T09:56:54;101016.41;;;6.98;54.55
74327;BME280;62745;51.060;13.786;2023-03-02T09:59:53;101022.03;;;6.95;55.79
74327;BME280;62745;51.060;13.786;2023-03-02T10:02:47;101018.38;;;7.67;54.03
74327;BME280;62745;51.060;13.786;2023-03-02T10:05:26;101013.91;;;7.50;54.96
74327;BME280;62745;51.060;13.786;2023-03-02T10:07:52;100998.59;;;7.44;55.06
74327;BME280;62745;51.060;13.786;2023-03-02T10:13:20;101002.31;;;8.29;52.11
74327;BME280;62745;51.060;13.786;2023-03-02T10:16:00;100994.44;;;8.95;52.08
74327;BME280;62745;51.060;13.786;2023-03-02T10:18:33;100992.44;;;8.47;52.43
74327;BME280;62745;51.060;13.786;2023-03-02T10:21:11;100989.66;;;8.57;50.97
74327;BME280;62745;51.060;13.786;2023-03-02T10:23:43;100975.75;;;8.37;50.35
74327;BME280;62745;51.060;13.786;2023-03-02T10:28:47;100975.75;;;8.37;48.77
74327;BME280;62745;51.060;13.786;2023-03-02T10:31:29;100979.78;;;8.49;49.98
74327;BME280;62745;51.060;13.786;2023-03-02T10:33:55;100968.66;;;8.20;50.05
74327;BME280;62745;51.060;13.786;2023-03-02T10:36:30;100971.50;;;7.92;48.07
74327;BME280;62745;51.060;13.786;2023-03-02T10:38:57;100967.47;;;8.40;49.73
74327;BME280;62745;51.060;13.786;2023-03-02T10:41:31;100952.06;;;8.68;47.72
74327;BME280;62745;51.060;13.786;2023-03-02T10:44:23;100961.28;;;9.06;45.52
74327;BME280;62745;51.060;13.786;2023-03-02T10:46:49;100959.13;;;9.18;44.53
74327;BME280;62745;51.060;13.786;2023-03-02T10:49:32;100939.66;;;9.25;42.27
74327;BME280;62745;51.060;13.786;2023-03-02T10:52:00;100959.66;;;9.46;41.15
74327;BME280;62745;51.060;13.786;2023-03-02T10:54:28;100957.31;;;10.31;40.59
74327;BME280;62745;51.060;13.786;2023-03-02T10:57:02;100946.72;;;9.98;39.37
74327;BME280;62745;51.060;13.786;2023-03-02T10:59:37;100950.63;;;9.63;38.82
74327;BME280;62745;51.060;13.786;2023-03-02T11:02:13;100952.63;;;9.53;40.50
74327;BME280;62745;51.060;13.786;2023-03-02T11:04:39;100953.00;;;9.25;39.65
74327;BME280;62745;51.060;13.786;2023-03-02T11:07:17;100941.13;;;9.60;37.27
74327;BME280;62745;51.060;13.786;2023-03-02T11:09:57;100933.69;;;10.11;34.81
74327;BME280;62745;51.060;13.786;2023-03-02T11:12:23;100933.59;;;10.67;37.47
74327;BME280;62745;51.060;13.786;2023-03-02T11:14:48;100927.53;;;10.73;33.47
74327;BME280;62745;51.060;13.786;2023-03-02T11:17:29;100925.94;;;10.33;34.68
74327;BME280;62745;51.060;13.786;2023-03-02T11:19:56;100914.25;;;10.88;35.57
74327;BME280;62745;51.060;13.786;2023-03-02T11:22:42;100912.34;;;11.57;35.09
74327;BME280;62745;51.060;13.786;2023-03-02T11:25:22;100904.31;;;12.45;33.82
74327;BME280;62745;51.060;13.786;2023-03-02T11:27:54;100901.28;;;12.70;31.88
74327;BME280;62745;51.060;13.786;2023-03-02T11:30:22;100902.72;;;12.87;29.58
74327;BME280;62745;51.060;13.786;2023-03-02T11:33:01;100890.09;;;12.45;28.01
74327;BME280;62745;51.060;13.786;2023-03-02T11:35:35;100891.47;;;12.98;27.89
74327;BME280;62745;51.060;13.786;2023-03-02T11:38:11;100884.81;;;12.73;27.44
74327;BME280;62745;51.060;13.786;2023-03-02T11:40:46;100890.00;;;12.74;27.98
74327;BME280;62745;51.060;13.786;2023-03-02T11:43:13;100885.28;;;12.98;27.43
74327;BME280;62745;51.060;13.786;2023-03-02T11:45:44;100882.66;;;12.61;25.91
74327;BME280;62745;51.060;13.786;2023-03-02T11:48:24;100885.66;;;13.16;26.93
74327;BME280;62745;51.060;13.786;2023-03-02T11:50:55;100873.38;;;13.91;28.98
74327;BME280;62745;51.060;13.786;2023-03-02T11:53:32;100863.84;;;13.81;24.45
74327;BME280;62745;51.060;13.786;2023-03-02T11:56:03;100865.09;;;13.51;25.90
74327;BME280;62745;51.060;13.786;2023-03-02T11:58:28;100862.00;;;13.82;25.92
74327;BME280;62745;51.060;13.786;2023-03-02T12:00:55;100868.78;;;14.19;26.47
74327;BME280;62745;51.060;13.786;2023-03-02T12:03:35;100859.38;;;13.95;25.79
74327;BME280;62745;51.060;13.786;2023-03-02T12:08:49;100858.50;;;14.36;25.41
74327;BME280;62745;51.060;13.786;2023-03-02T12:13:41;100858.59;;;14.56;26.08
74327;BME280;62745;51.060;13.786;2023-03-02T12:16:40;100858.25;;;14.79;27.95
74327;BME280;62745;51.060;13.786;2023-03-02T12:19:24;100847.25;;;15.26;27.41
74327;BME280;62745;51.060;13.786;2023-03-02T12:21:59;100846.44;;;15.32;25.75
74327;BME280;62745;51.060;13.786;2023-03-02T12:24:33;100842.91;;;15.45;25.26
74327;BME280;62745;51.060;13.786;2023-03-02T12:29:54;100849.34;;;16.22;26.27
74327;BME280;62745;51.060;13.786;2023-03-02T12:37:27;100834.59;;;16.94;24.60
74327;BME280;62745;51.060;13.786;2023-03-02T12:40:20;100839.97;;;17.01;24.81
74327;BME280;62745;51.060;13.786;2023-03-02T12:43:18;100832.91;;;17.00;24.99
74327;BME280;62745;51.060;13.786;2023-03-02T12:46:09;100830.13;;;16.50;25.55
74327;BME280;62745;51.060;13.786;2023-03-02T12:49:24;100831.34;;;17.10;25.63
74327;BME280;62745;51.060;13.786;2023-03-02T12:51:54;100823.31;;;17.72;24.07
74327;BME280;62745;51.060;13.786;2023-03-02T12:54:25;100817.94;;;17.47;23.90
74327;BME280;62745;51.060;13.786;2023-03-02T12:59:28;100801.50;;;17.67;25.47
74327;BME280;62745;51.060;13.786;2023-03-02T13:02:20;100812.56;;;18.02;25.41
74327;BME280;62745;51.060;13.786;2023-03-02T13:04:57;100809.44;;;18.47;24.17
74327;BME280;62745;51.060;13.786;2023-03-02T13:07:26;100794.03;;;18.47;23.24
74327;BME280;62745;51.060;13.786;2023-03-02T13:09:56;100799.44;;;18.77;23.29
74327;BME280;62745;51.060;13.786;2023-03-02T13:12:24;100802.88;;;18.54;23.84
74327;BME280;62745;51.060;13.786;2023-03-02T13:14:53;100792.78;;;18.20;24.86
74327;BME280;62745;51.060;13.786;2023-03-02T13:17:30;100794.53;;;18.26;23.30
74327;BME280;62745;51.060;13.786;2023-03-02T13:20:00;100792.34;;;18.04;24.23
74327;BME280;62745;51.060;13.786;2023-03-02T13:22:28;100780.78;;;18.16;24.07
74327;BME280;62745;51.060;13.786;2023-03-02T13:24:57;100786.97;;;18.76;22.84
74327;BME280;62745;51.060;13.786;2023-03-02T13:27:25;100775.91;;;18.06;24.45
74327;BME280;62745;51.060;13.786;2023-03-02T13:29:52;100781.38;;;18.29;23.10
74327;BME280;62745;51.060;13.786;2023-03-02T13:32:39;100773.22;;;19.24;24.25
74327;BME280;62745;51.060;13.786;2023-03-02T13:35:15;100778.72;;;18.41;24.83